createdAt,value
2022-11-08T00:01:29.921Z,99321.77
2022-11-08T00:06:51.406Z,99326.02
2022-11-08T00:12:12.937Z,99325.05
2022-11-08T00:17:17.697Z,99326.21
2022-11-08T00:22:21.092Z,99327.27
2022-11-08T00:27:25.306Z,99325.08
2022-11-08T00:32:28.702Z,99323.58
2022-11-08T00:37:31.855Z,99323.14
2022-11-08T00:42:34.773Z,99319.08
2022-11-08T00:47:37.667Z,99314.61
2022-11-08T00:52:40.576Z,99316.98
2022-11-08T00:58:00.382Z,99317.77
2022-11-08T01:03:18.922Z,99318.61
2022-11-08T01:08:23.207Z,99318.83
2022-11-08T01:13:26.261Z,99318.67
2022-11-08T01:18:29.192Z,99320.94
2022-11-08T01:23:34.176Z,99314.53
2022-11-08T01:28:37.415Z,99315.29
2022-11-08T01:33:40.522Z,99315.55
2022-11-08T01:38:43.574Z,99315.70
2022-11-08T01:43:55.616Z,99310.77
2022-11-08T01:49:12.015Z,99310.97
2022-11-08T01:54:21.302Z,99311.52
2022-11-08T01:59:24.870Z,99310.41
2022-11-08T02:04:30.550Z,99312.52
2022-11-08T02:09:38.041Z,99315.30
2022-11-08T02:14:40.987Z,99311.12
2022-11-08T02:19:47.196Z,99304.95
2022-11-08T02:24:50.189Z,99299.46
2022-11-08T02:29:54.834Z,99298.44
2022-11-08T02:35:02.997Z,99299.48
2022-11-08T02:40:09.043Z,99297.24
2022-11-08T02:45:12.072Z,99298.35
2022-11-08T02:50:14.981Z,99298.17
2022-11-08T02:55:17.911Z,99301.15
2022-11-08T03:00:21.019Z,99300.87
2022-11-08T03:05:25.346Z,99301.91
2022-11-08T03:10:29.018Z,99302.45
2022-11-08T03:15:32.931Z,99299.05
2022-11-08T03:20:35.898Z,99298.90
2022-11-08T03:25:38.795Z,99301.88
2022-11-08T03:30:42.036Z,99303.95
2022-11-08T03:35:44.918Z,99304.90
2022-11-08T03:40:48.128Z,99301.60
2022-11-08T03:45:51.000Z,99302.34
2022-11-08T03:50:53.898Z,99307.09
2022-11-08T03:55:59.938Z,99307.06
2022-11-08T04:01:07.168Z,99307.53
2022-11-08T04:06:10.678Z,99311.50
2022-11-08T04:11:32.115Z,99309.25
2022-11-08T04:16:35.167Z,99309.59
2022-11-08T04:21:38.148Z,99306.26
2022-11-08T04:26:41.338Z,99305.40
2022-11-08T04:31:44.202Z,99309.67
2022-11-08T04:36:47.137Z,99304.30
2022-11-08T04:41:50.003Z,99296.07
2022-11-08T04:46:53.040Z,99293.69
2022-11-08T04:51:56.173Z,99290.74
2022-11-08T04:56:59.099Z,99288.95
2022-11-08T05:02:03.398Z,99285.02
2022-11-08T05:07:06.672Z,99285.42
2022-11-08T05:12:09.526Z,99282.36
2022-11-08T05:17:12.531Z,99278.41
2022-11-08T05:22:34.019Z,99279.55
2022-11-08T05:27:36.952Z,99278.19
2022-11-08T05:32:39.844Z,99281.71
2022-11-08T05:37:42.718Z,99290.39
2022-11-08T05:42:45.593Z,99293.11
2022-11-08T05:47:48.554Z,99300.87
2022-11-08T05:52:54.362Z,99298.52
2022-11-08T05:57:57.404Z,99307.20
2022-11-08T06:03:03.737Z,99310.50
2022-11-08T06:08:06.673Z,99316.31
2022-11-08T06:13:09.531Z,99305.09
2022-11-08T06:18:12.437Z,99306.45
2022-11-08T06:23:15.485Z,99318.09
2022-11-08T06:28:19.004Z,99321.55
2022-11-08T06:33:22.340Z,99328.48
2022-11-08T06:38:25.847Z,99330.03
2022-11-08T06:43:29.025Z,99333.36
2022-11-08T06:48:35.873Z,99334.30
2022-11-08T06:53:39.292Z,99333.83
2022-11-08T06:58:42.574Z,99339.67
2022-11-08T07:03:45.744Z,99341.09
2022-11-08T07:08:49.058Z,99351.16
2022-11-08T07:13:52.010Z,99345.17
2022-11-08T07:18:55.840Z,99347.30
2022-11-08T07:23:58.987Z,99346.52
2022-11-08T07:29:02.288Z,99345.99
2022-11-08T07:34:05.133Z,99344.86
2022-11-08T07:39:08.061Z,99346.27
2022-11-08T07:44:11.031Z,99347.29
2022-11-08T07:49:14.027Z,99343.02
2022-11-08T07:54:17.279Z,99335.95
2022-11-08T07:59:20.132Z,99336.89
2022-11-08T08:04:23.079Z,99330.45
2022-11-08T08:09:26.072Z,99331.20
2022-11-08T08:14:29.092Z,99325.86
2022-11-08T08:19:32.153Z,99325.57
2022-11-08T08:24:35.245Z,99314.10
2022-11-08T08:29:38.204Z,99312.21
2022-11-08T08:34:41.167Z,99308.55
2022-11-08T08:39:44.303Z,99307.85
2022-11-08T08:44:47.225Z,99306.05
2022-11-08T08:49:50.263Z,99303.58
2022-11-08T08:54:53.175Z,99302.95
2022-11-08T09:05:19.294Z,99298.20
2022-11-08T09:10:22.622Z,99298.14
2022-11-08T09:15:25.577Z,99296.78
2022-11-08T09:20:28.718Z,99297.06
2022-11-08T09:25:31.922Z,99299.84
2022-11-08T09:30:35.074Z,99299.03
2022-11-08T09:35:38.289Z,99293.20
2022-11-08T09:40:55.579Z,99288.00
2022-11-08T09:45:59.147Z,99288.00
2022-11-08T09:51:17.464Z,99287.87
2022-11-08T09:56:28.447Z,99288.22
2022-11-08T10:01:46.570Z,99285.93
2022-11-08T10:07:07.824Z,99284.51
2022-11-08T10:12:15.303Z,99278.52
2022-11-08T10:17:36.351Z,99281.08
2022-11-08T10:22:48.035Z,99273.52
2022-11-08T10:27:54.877Z,99266.89
2022-11-08T10:32:58.110Z,99258.73
2022-11-08T10:38:03.436Z,99250.02
2022-11-08T10:43:14.632Z,99243.60
2022-11-08T10:48:17.928Z,99239.64
2022-11-08T10:53:32.062Z,99236.47
2022-11-08T10:58:40.890Z,99233.15
2022-11-08T11:04:09.710Z,99227.00
2022-11-08T11:09:24.291Z,99220.29
2022-11-08T11:14:27.344Z,99208.21
2022-11-08T11:19:30.772Z,99206.03
2022-11-08T11:24:45.992Z,99202.66
2022-11-08T11:29:48.914Z,99200.54
2022-11-08T11:34:59.612Z,99190.89
2022-11-08T11:40:30.136Z,99194.52
2022-11-08T11:45:45.167Z,99191.58
2022-11-08T11:50:50.107Z,99187.09
2022-11-08T11:56:05.510Z,99181.12
2022-11-08T12:01:33.146Z,99178.73
2022-11-08T12:06:46.635Z,99174.41
2022-11-08T12:11:55.065Z,99168.28
2022-11-08T12:17:01.080Z,99163.98
2022-11-08T12:22:25.747Z,99160.77
2022-11-08T12:27:43.394Z,99157.18
2022-11-08T12:33:14.678Z,99146.92
2022-11-08T12:38:31.356Z,99143.33
2022-11-08T12:44:01.456Z,99141.30
2022-11-08T12:49:16.397Z,99140.73
2022-11-08T12:54:21.617Z,99133.76
2022-11-08T12:59:29.297Z,99130.86
2022-11-08T13:04:51.111Z,99128.27
2022-11-08T13:10:04.946Z,99120.95
2022-11-08T13:15:25.117Z,99117.29
2022-11-08T13:20:48.516Z,99119.39
2022-11-08T13:25:53.044Z,99119.83
2022-11-08T13:31:02.551Z,99119.38
2022-11-08T13:36:47.248Z,99120.03
2022-11-08T13:42:24.960Z,99121.66
2022-11-08T13:47:33.584Z,99122.96
2022-11-08T13:52:56.851Z,99118.07
2022-11-08T13:54:01.032Z,99120.63
2022-11-08T13:55:03.860Z,99121.14
2022-11-08T13:56:06.607Z,99121.50
2022-11-08T13:57:09.279Z,99125.08
2022-11-08T13:59:20.055Z,99122.61
2022-11-08T14:00:24.690Z,99122.60
2022-11-08T14:01:51.001Z,99121.30
2022-11-08T14:02:53.781Z,99120.81
2022-11-08T14:03:56.506Z,99120.83
2022-11-08T14:05:01.638Z,99119.86
2022-11-08T14:06:06.653Z,99119.48
2022-11-08T14:07:09.631Z,99122.27
2022-11-08T14:17:12.280Z,99111.23
2022-11-08T14:22:15.369Z,99112.70
2022-11-08T14:27:18.065Z,99109.08
2022-11-08T14:32:20.717Z,99103.65
2022-11-08T14:37:23.415Z,99105.52
2022-11-08T14:42:26.174Z,99103.56
2022-11-08T14:47:30.347Z,99102.14
2022-11-08T14:52:33.183Z,99104.37
2022-11-08T14:57:36.349Z,99097.48
2022-11-08T15:02:39.399Z,99097.65
2022-11-08T15:07:42.151Z,99096.71
2022-11-08T15:12:44.917Z,99098.55
2022-11-08T15:17:47.623Z,99094.06
2022-11-08T15:22:55.458Z,99092.27
2022-11-08T15:27:59.300Z,99088.92
2022-11-08T15:33:03.418Z,99088.41
2022-11-08T15:38:06.100Z,99089.67
2022-11-08T15:43:08.785Z,99088.52
2022-11-08T15:48:11.707Z,99088.52
2022-11-08T15:53:14.945Z,99084.40
2022-11-08T15:58:17.838Z,99089.06
2022-11-08T16:03:20.721Z,99089.79
2022-11-08T16:08:25.694Z,99088.79
2022-11-08T16:13:28.699Z,99083.30
2022-11-08T16:18:34.277Z,99081.55
2022-11-08T16:23:37.098Z,99084.06
2022-11-08T16:28:40.031Z,99085.20
2022-11-08T16:33:43.017Z,99088.45
2022-11-08T16:38:45.709Z,99086.45
2022-11-08T16:43:48.402Z,99090.83
2022-11-08T16:48:51.099Z,99094.11
2022-11-08T16:53:53.975Z,99091.90
2022-11-08T16:58:56.827Z,99088.37
2022-11-08T17:03:59.555Z,99090.05
2022-11-08T17:09:02.368Z,99090.83
2022-11-08T17:14:05.435Z,99093.33
2022-11-08T17:19:08.539Z,99092.85
2022-11-08T17:24:11.195Z,99096.92
2022-11-08T17:29:13.966Z,99098.19
2022-11-08T17:34:16.716Z,99099.08
2022-11-08T17:39:19.421Z,99099.43
2022-11-08T17:44:22.323Z,99100.45
2022-11-08T17:49:24.971Z,99104.34
2022-11-08T17:54:27.671Z,99105.17
2022-11-08T17:59:30.403Z,99105.85
2022-11-08T18:04:33.115Z,99103.14
2022-11-08T18:09:35.816Z,99107.82
2022-11-08T18:14:38.596Z,99120.61
2022-11-08T18:19:41.336Z,99117.33
2022-11-08T18:24:47.441Z,99116.54
2022-11-08T18:29:52.697Z,99112.52
2022-11-08T18:34:56.657Z,99114.50
2022-11-08T18:39:59.390Z,99119.90
2022-11-08T18:45:02.275Z,99115.09
2022-11-08T18:50:05.626Z,99117.12
2022-11-08T18:55:08.332Z,99118.58
2022-11-08T19:00:11.013Z,99120.09
2022-11-08T19:05:14.063Z,99122.31
2022-11-08T19:10:25.886Z,99117.56
2022-11-08T19:15:28.625Z,99122.69
2022-11-08T19:20:31.322Z,99125.35
2022-11-08T19:25:36.101Z,99128.30
2022-11-08T19:30:39.133Z,99131.46
2022-11-08T19:35:41.827Z,99133.98
2022-11-08T19:40:47.355Z,99134.95
2022-11-08T19:45:52.479Z,99144.64
2022-11-08T19:50:55.814Z,99147.36
2022-11-08T19:55:59.356Z,99153.70
2022-11-08T20:01:02.866Z,99156.25
2022-11-08T20:06:06.089Z,99158.45
2022-11-08T20:11:09.448Z,99158.71
2022-11-08T20:16:12.736Z,99163.40
2022-11-08T20:21:15.840Z,99164.85
2022-11-08T20:26:18.835Z,99160.98
2022-11-08T20:31:23.018Z,99160.91
2022-11-08T20:36:25.898Z,99154.69
2022-11-08T20:41:30.070Z,99154.35
2022-11-08T20:46:33.295Z,99153.34
2022-11-08T20:51:36.125Z,99154.25
2022-11-08T20:56:38.881Z,99154.17
2022-11-08T21:01:41.888Z,99156.77
2022-11-08T21:06:44.652Z,99158.48
2022-11-08T21:11:47.633Z,99156.52
2022-11-08T21:22:16.677Z,99155.47
2022-11-08T21:27:19.473Z,99150.90
2022-11-08T21:32:22.319Z,99150.75
2022-11-08T21:37:25.008Z,99151.60
2022-11-08T21:42:27.893Z,99152.98
2022-11-08T21:47:30.664Z,99158.39
2022-11-08T21:52:33.409Z,99154.25
2022-11-08T21:57:36.137Z,99152.33
2022-11-08T22:02:38.843Z,99153.46
2022-11-08T22:07:41.626Z,99151.66
2022-11-08T22:12:44.443Z,99154.30
2022-11-08T22:18:14.456Z,99152.56
2022-11-08T22:23:10.101Z,99149.64
2022-11-08T22:28:12.869Z,99149.95
2022-11-08T22:33:15.809Z,99156.02
2022-11-08T22:38:19.059Z,99150.24
2022-11-08T22:43:21.950Z,99149.22
2022-11-08T22:48:24.762Z,99148.20
2022-11-08T22:53:27.624Z,99152.88
2022-11-08T22:58:30.414Z,99154.98
2022-11-08T23:03:33.496Z,99155.26
2022-11-08T23:08:36.320Z,99154.91
2022-11-08T23:13:58.026Z,99152.29
2022-11-08T23:19:19.307Z,99149.16
2022-11-08T23:24:22.149Z,99151.52
2022-11-08T23:29:43.246Z,99153.77
2022-11-08T23:34:46.058Z,99156.14
2022-11-08T23:40:07.151Z,99158.77
2022-11-08T23:45:09.947Z,99159.25
2022-11-08T23:50:12.652Z,99158.91
2022-11-08T23:55:15.308Z,99158.38
